createdAt,value
2023-02-19T00:02:38.662Z,4.98
2023-02-19T00:06:16.510Z,4.97
2023-02-19T00:10:12.873Z,4.95
2023-02-19T00:13:39.458Z,4.92
2023-02-19T00:17:12.841Z,4.86
2023-02-19T00:21:10.322Z,4.85
2023-02-19T00:24:33.208Z,4.84
2023-02-19T00:28:30.117Z,4.84
2023-02-19T00:31:52.686Z,4.87
2023-02-19T00:35:29.792Z,4.84
2023-02-19T00:39:26.656Z,4.83
2023-02-19T00:43:08.011Z,4.84
2023-02-19T00:46:49.527Z,4.85
2023-02-19T00:50:11.943Z,4.88
2023-02-19T00:54:09.699Z,4.94
2023-02-19T00:57:50.512Z,4.98
2023-02-19T01:01:33.230Z,5.03
2023-02-19T01:04:55.244Z,5.08
2023-02-19T01:08:51.794Z,5.08
2023-02-19T01:12:15.104Z,5.05
2023-02-19T01:16:19.581Z,5.01
2023-02-19T01:19:41.939Z,4.97
2023-02-19T01:23:41.424Z,4.93
2023-02-19T01:27:03.513Z,4.87
2023-02-19T01:30:41.283Z,4.81
2023-02-19T01:34:39.299Z,4.75
2023-02-19T01:38:02.480Z,4.69
2023-02-19T01:41:41.782Z,4.67
2023-02-19T01:45:29.198Z,4.65
2023-02-19T01:49:20.697Z,4.67
2023-02-19T01:52:44.356Z,4.70
2023-02-19T01:56:45.132Z,4.73
2023-02-19T02:00:11.951Z,4.75
2023-02-19T02:03:49.452Z,4.74
2023-02-19T02:07:42.603Z,4.74
2023-02-19T02:11:07.340Z,4.71
2023-02-19T02:14:48.143Z,4.67
2023-02-19T02:18:50.724Z,4.66
2023-02-19T02:22:59.472Z,4.62
2023-02-19T02:27:12.382Z,4.60
2023-02-19T02:31:03.848Z,4.61
2023-02-19T02:34:46.235Z,4.61
2023-02-19T02:38:31.309Z,4.63
2023-02-19T02:42:27.879Z,4.63
2023-02-19T02:45:58.495Z,4.67
2023-02-19T02:50:06.637Z,4.69
2023-02-19T02:54:07.372Z,4.70
2023-02-19T02:57:30.685Z,4.63
2023-02-19T03:01:36.014Z,4.61
2023-02-19T03:05:44.200Z,4.60
2023-02-19T03:09:20.526Z,4.60
2023-02-19T03:13:04.580Z,4.59
2023-02-19T03:16:52.504Z,4.58
2023-02-19T03:20:38.306Z,4.58
2023-02-19T03:24:44.908Z,4.55
2023-02-19T03:28:49.116Z,4.56
2023-02-19T03:32:27.233Z,4.52
2023-02-19T03:35:58.349Z,4.52
2023-02-19T03:39:30.827Z,4.54
2023-02-19T03:43:33.308Z,4.58
2023-02-19T03:47:24.362Z,4.62
2023-02-19T03:51:09.278Z,4.64
2023-02-19T03:54:44.227Z,4.64
2023-02-19T03:58:19.778Z,4.63
2023-02-19T04:02:15.624Z,4.62
2023-02-19T04:06:09.185Z,4.67
2023-02-19T04:09:51.379Z,4.66
2023-02-19T04:13:29.564Z,4.65
2023-02-19T04:17:03.305Z,4.64
2023-02-19T04:20:37.496Z,4.67
2023-02-19T04:24:37.101Z,4.72
2023-02-19T04:28:02.557Z,4.75
2023-02-19T04:31:57.482Z,4.77
2023-02-19T04:35:40.211Z,4.78
2023-02-19T04:39:03.681Z,4.79
2023-02-19T04:42:41.532Z,4.79
2023-02-19T04:46:20.392Z,4.80
2023-02-19T04:49:55.879Z,4.80
2023-02-19T04:53:34.603Z,4.80
2023-02-19T04:57:32.627Z,4.83
2023-02-19T05:00:54.911Z,4.84
2023-02-19T05:04:32.702Z,4.84
2023-02-19T05:08:11.386Z,4.84
2023-02-19T05:11:49.207Z,4.81
2023-02-19T05:15:29.214Z,4.83
2023-02-19T05:19:22.201Z,4.86
2023-02-19T05:22:45.540Z,4.90
2023-02-19T05:26:23.576Z,4.91
2023-02-19T05:29:59.885Z,4.94
2023-02-19T05:33:56.328Z,4.99
2023-02-19T05:37:18.429Z,5.00
2023-02-19T05:40:56.165Z,4.98
2023-02-19T05:44:34.159Z,4.94
2023-02-19T05:48:30.477Z,4.91
2023-02-19T05:51:52.826Z,4.92
2023-02-19T05:55:34.533Z,4.99
2023-02-19T05:59:15.542Z,5.04
2023-02-19T06:02:46.692Z,5.06
2023-02-19T06:06:25.434Z,5.06
2023-02-19T06:10:01.238Z,5.04
2023-02-19T06:13:38.747Z,5.01
2023-02-19T06:17:16.726Z,4.98
2023-02-19T06:20:54.043Z,4.99
2023-02-19T06:24:50.405Z,5.02
2023-02-19T06:28:31.617Z,5.07
2023-02-19T06:31:55.157Z,5.06
2023-02-19T06:35:50.166Z,5.05
2023-02-19T06:39:16.650Z,5.01
2023-02-19T06:43:10.826Z,4.99
2023-02-19T06:46:35.552Z,4.99
2023-02-19T06:50:34.241Z,4.98
2023-02-19T06:53:56.113Z,4.98
2023-02-19T06:57:33.905Z,4.98
2023-02-19T07:01:12.223Z,5.01
2023-02-19T07:04:49.183Z,5.05
2023-02-19T07:08:45.811Z,5.05
2023-02-19T07:12:08.181Z,5.04
2023-02-19T07:16:07.714Z,5.05
2023-02-19T07:19:31.942Z,5.06
2023-02-19T07:23:07.817Z,5.09
2023-02-19T07:26:45.507Z,5.08
2023-02-19T07:30:42.129Z,5.12
2023-02-19T07:34:04.363Z,5.12
2023-02-19T07:37:43.767Z,5.11
2023-02-19T07:41:19.508Z,5.15
2023-02-19T07:45:00.498Z,5.14
2023-02-19T07:48:36.582Z,5.11
2023-02-19T07:52:12.414Z,5.10
2023-02-19T07:55:50.408Z,5.11
2023-02-19T07:59:27.690Z,5.10
2023-02-19T08:03:06.302Z,5.09
2023-02-19T08:06:43.669Z,5.07
2023-02-19T08:10:59.246Z,5.06
2023-02-19T08:14:26.302Z,5.01
2023-02-19T08:18:25.099Z,4.93
2023-02-19T08:21:47.357Z,4.89
2023-02-19T08:25:43.899Z,4.81
2023-02-19T08:29:06.577Z,4.78
2023-02-19T08:33:04.549Z,4.70
2023-02-19T08:36:46.024Z,4.21
2023-02-19T08:40:08.732Z,3.73
2023-02-19T08:44:04.536Z,3.52
2023-02-19T08:47:26.857Z,3.36
2023-02-19T08:51:23.433Z,3.27
2023-02-19T08:54:47.003Z,3.20
2023-02-19T08:58:43.272Z,3.15
2023-02-19T09:02:06.450Z,2.90
2023-02-19T09:06:02.885Z,2.71
2023-02-19T09:09:25.860Z,2.66
2023-02-19T09:13:21.668Z,2.64
2023-02-19T09:16:44.257Z,2.68
2023-02-19T09:20:21.949Z,2.68
2023-02-19T09:23:59.359Z,2.51
2023-02-19T09:27:37.003Z,2.36
2023-02-19T09:31:17.123Z,2.21
2023-02-19T09:35:11.225Z,2.01
2023-02-19T09:38:53.206Z,1.94
2023-02-19T09:42:29.826Z,1.92
2023-02-19T09:46:04.568Z,1.85
2023-02-19T09:49:39.798Z,1.74
2023-02-19T09:53:25.209Z,1.73
2023-02-19T09:57:17.880Z,1.54
2023-02-19T10:00:40.788Z,1.46
2023-02-19T10:04:18.405Z,1.47
2023-02-19T10:07:57.956Z,1.51
2023-02-19T10:11:58.798Z,1.60
2023-02-19T10:15:33.538Z,1.73
2023-02-19T10:19:20.722Z,1.79
2023-02-19T10:22:45.634Z,1.92
2023-02-19T10:26:41.650Z,1.98
2023-02-19T10:30:07.937Z,2.00
2023-02-19T10:33:55.669Z,2.03
2023-02-19T10:37:19.820Z,2.09
2023-02-19T10:41:06.231Z,2.15
2023-02-19T10:44:47.897Z,2.17
2023-02-19T10:48:24.826Z,2.17
2023-02-19T10:51:53.883Z,2.12
2023-02-19T10:55:37.826Z,2.14
2023-02-19T10:59:17.766Z,2.11
2023-02-19T11:02:47.244Z,2.31
2023-02-19T11:06:39.937Z,2.56
2023-02-19T11:10:03.442Z,2.75
2023-02-19T11:13:42.299Z,2.86
2023-02-19T11:17:36.279Z,2.95
2023-02-19T11:21:32.432Z,2.79
2023-02-19T11:25:02.464Z,2.71
2023-02-19T11:28:37.951Z,2.71
2023-02-19T11:32:30.176Z,2.75
2023-02-19T11:36:20.714Z,2.79
2023-02-19T11:40:02.875Z,2.79
2023-02-19T11:43:53.058Z,2.70
2023-02-19T11:47:46.069Z,2.59
2023-02-19T11:51:34.142Z,2.62
2023-02-19T11:55:23.568Z,2.66
2023-02-19T11:59:00.815Z,2.66
2023-02-19T12:02:59.212Z,2.72
2023-02-19T12:06:48.533Z,2.71
2023-02-19T12:10:14.016Z,2.60
2023-02-19T12:13:55.125Z,2.60
2023-02-19T12:17:54.570Z,2.69
2023-02-19T12:21:50.935Z,2.75
2023-02-19T12:25:38.718Z,2.85
2023-02-19T12:29:30.162Z,2.93
2023-02-19T12:33:45.425Z,2.95
2023-02-19T12:37:59.827Z,2.94
2023-02-19T12:41:57.004Z,2.94
2023-02-19T12:45:36.514Z,3.00
2023-02-19T12:49:32.755Z,2.95
2023-02-19T12:53:32.995Z,2.97
2023-02-19T12:57:12.578Z,2.98
2023-02-19T13:00:47.385Z,2.99
2023-02-19T13:04:50.906Z,2.99
2023-02-19T13:08:48.817Z,2.99
2023-02-19T13:12:27.641Z,2.89
2023-02-19T13:16:00.727Z,2.87
2023-02-19T13:19:33.614Z,2.95
2023-02-19T13:23:37.897Z,2.90
2023-02-19T13:27:17.498Z,2.94
2023-02-19T13:31:13.633Z,2.95
2023-02-19T13:35:16.361Z,3.05
2023-02-19T13:38:47.345Z,3.11
2023-02-19T13:42:31.219Z,3.18
2023-02-19T13:46:01.642Z,3.27
2023-02-19T13:49:33.831Z,3.48
2023-02-19T13:53:47.687Z,3.66
2023-02-19T13:57:29.153Z,3.60
2023-02-19T14:00:53.515Z,3.46
2023-02-19T14:04:43.759Z,3.37
2023-02-19T14:08:47.562Z,3.25
2023-02-19T14:12:14.404Z,3.12
2023-02-19T14:15:51.700Z,3.03
2023-02-19T14:19:48.983Z,2.95
2023-02-19T14:23:22.880Z,2.85
2023-02-19T14:27:10.256Z,2.78
2023-02-19T14:31:02.351Z,2.75
2023-02-19T14:34:46.681Z,2.67
2023-02-19T14:38:36.310Z,2.64
2023-02-19T14:42:05.586Z,2.59
2023-02-19T14:45:47.091Z,2.50
2023-02-19T14:49:45.644Z,2.42
2023-02-19T14:53:11.072Z,2.37
2023-02-19T14:56:51.358Z,2.32
2023-02-19T15:00:43.146Z,2.30
2023-02-19T15:04:34.528Z,2.31
2023-02-19T15:08:22.266Z,2.35
2023-02-19T15:11:45.780Z,2.31
2023-02-19T15:15:33.501Z,2.25
2023-02-19T15:19:05.128Z,2.24
2023-02-19T15:22:41.958Z,2.23
2023-02-19T15:26:36.976Z,2.22
2023-02-19T15:30:25.548Z,2.22
2023-02-19T15:34:15.577Z,2.19
2023-02-19T15:37:39.773Z,2.15
2023-02-19T15:41:21.211Z,2.08
2023-02-19T15:45:07.044Z,2.00
2023-02-19T15:48:57.422Z,1.97
2023-02-19T15:52:59.585Z,1.96
2023-02-19T15:56:48.369Z,1.89
2023-02-19T16:00:14.078Z,1.87
2023-02-19T16:04:16.637Z,1.84
2023-02-19T16:07:38.958Z,1.85
2023-02-19T16:11:22.611Z,1.86
2023-02-19T16:15:14.370Z,1.82
2023-02-19T16:18:37.181Z,1.77
2023-02-19T16:22:40.897Z,1.74
2023-02-19T16:26:04.342Z,1.73
2023-02-19T16:30:27.520Z,1.67
2023-02-19T16:33:50.740Z,1.61
2023-02-19T16:37:58.240Z,1.55
2023-02-19T16:41:21.171Z,1.47
2023-02-19T16:44:58.153Z,1.39
2023-02-19T16:48:35.391Z,1.35
2023-02-19T16:52:15.434Z,1.36
2023-02-19T16:56:17.825Z,1.38
2023-02-19T16:59:40.041Z,1.33
2023-02-19T17:03:23.824Z,1.29
2023-02-19T17:06:56.712Z,1.23
2023-02-19T17:10:33.119Z,1.19
2023-02-19T17:14:29.762Z,1.14
2023-02-19T17:17:52.451Z,1.12
2023-02-19T17:21:33.427Z,1.12
2023-02-19T17:25:09.980Z,1.09
2023-02-19T17:29:06.073Z,1.07
2023-02-19T17:32:50.094Z,1.04
2023-02-19T17:36:24.461Z,1.03
2023-02-19T17:40:31.893Z,0.99
2023-02-19T17:44:14.854Z,0.89
2023-02-19T17:47:37.090Z,0.83
2023-02-19T17:51:15.204Z,0.75
2023-02-19T17:54:52.516Z,0.65
2023-02-19T17:58:49.709Z,0.59
2023-02-19T18:02:11.842Z,0.54
2023-02-19T18:06:08.706Z,0.51
2023-02-19T18:09:53.666Z,0.48
2023-02-19T18:13:34.720Z,0.47
2023-02-19T18:17:15.837Z,0.44
2023-02-19T18:20:38.207Z,0.39
2023-02-19T18:24:17.645Z,0.36
2023-02-19T18:27:53.867Z,0.31
2023-02-19T18:31:49.980Z,0.29
2023-02-19T18:35:31.115Z,0.28
2023-02-19T18:39:12.186Z,0.25
2023-02-19T18:42:53.418Z,0.21
2023-02-19T18:46:16.508Z,0.19
2023-02-19T18:49:57.879Z,0.16
2023-02-19T18:53:31.834Z,0.12
2023-02-19T18:57:28.632Z,0.08
2023-02-19T19:00:52.252Z,0.01
2023-02-19T19:04:51.210Z,0.01
2023-02-19T19:08:13.289Z,0.00
2023-02-19T19:12:11.259Z,0.02
2023-02-19T19:15:34.228Z,0.04
2023-02-19T19:19:12.569Z,0.01
2023-02-19T19:22:51.545Z,-0.04
2023-02-19T19:26:47.558Z,-0.10
2023-02-19T19:30:30.094Z,-0.12
2023-02-19T19:34:15.450Z,-0.10
2023-02-19T19:37:56.592Z,-0.09
2023-02-19T19:41:37.453Z,-0.09
2023-02-19T19:45:00.330Z,-0.12
2023-02-19T19:48:56.447Z,-0.16
2023-02-19T19:52:37.419Z,-0.23
2023-02-19T19:56:00.806Z,-0.29
2023-02-19T19:59:39.661Z,-0.30
2023-02-19T20:03:15.135Z,-0.30
2023-02-19T20:06:53.075Z,-0.31
2023-02-19T20:10:30.383Z,-0.31
2023-02-19T20:14:11.335Z,-0.30
2023-02-19T20:18:04.561Z,-0.33
2023-02-19T20:21:27.131Z,-0.38
2023-02-19T20:25:05.832Z,-0.42
2023-02-19T20:28:45.331Z,-0.45
2023-02-19T20:32:38.794Z,-0.43
2023-02-19T20:36:01.181Z,-0.41
2023-02-19T20:39:38.757Z,-0.41
2023-02-19T20:43:16.196Z,-0.43
2023-02-19T20:46:54.760Z,-0.47
2023-02-19T20:50:31.372Z,-0.49
2023-02-19T20:54:30.795Z,-0.52
2023-02-19T20:57:52.862Z,-0.54
2023-02-19T21:01:30.628Z,-0.54
2023-02-19T21:05:27.232Z,-0.57
2023-02-19T21:08:49.218Z,-0.54
2023-02-19T21:12:26.818Z,-0.51
2023-02-19T21:16:04.840Z,-0.50
2023-02-19T21:19:42.314Z,-0.50
2023-02-19T21:23:19.893Z,-0.55
2023-02-19T21:26:57.669Z,-0.59
2023-02-19T21:30:56.197Z,-0.63
2023-02-19T21:34:22.044Z,-0.65
2023-02-19T21:37:56.067Z,-0.65
2023-02-19T21:41:33.975Z,-0.67
2023-02-19T21:45:11.486Z,-0.68
2023-02-19T21:49:12.198Z,-0.70
2023-02-19T21:52:34.350Z,-0.79
2023-02-19T21:56:20.474Z,-0.86
2023-02-19T21:59:51.255Z,-0.93
2023-02-19T22:03:28.624Z,-0.99
2023-02-19T22:07:25.111Z,-1.00
2023-02-19T22:10:47.523Z,-0.98
2023-02-19T22:14:25.244Z,-0.96
2023-02-19T22:18:03.304Z,-0.94
2023-02-19T22:21:59.607Z,-0.93
2023-02-19T22:25:23.913Z,-0.92
2023-02-19T22:29:01.383Z,-0.93
2023-02-19T22:32:39.566Z,-0.97
2023-02-19T22:36:23.850Z,-0.98
2023-02-19T22:40:12.022Z,-0.99
2023-02-19T22:43:36.068Z,-0.98
2023-02-19T22:47:12.974Z,-0.97
2023-02-19T22:50:49.510Z,-0.92
2023-02-19T22:54:29.829Z,-0.91
2023-02-19T22:58:04.915Z,-0.90
2023-02-19T23:02:01.403Z,-0.93
2023-02-19T23:05:24.566Z,-0.95
2023-02-19T23:09:09.839Z,-1.02
2023-02-19T23:12:40.098Z,-1.06
2023-02-19T23:16:16.966Z,-1.11
2023-02-19T23:20:13.194Z,-1.14
2023-02-19T23:23:36.480Z,-1.13
2023-02-19T23:27:14.144Z,-1.11
2023-02-19T23:30:52.030Z,-1.06
2023-02-19T23:34:49.559Z,-1.01
2023-02-19T23:38:12.153Z,-0.99
2023-02-19T23:41:52.841Z,-0.96
2023-02-19T23:45:27.394Z,-0.96
2023-02-19T23:49:05.629Z,-0.98
2023-02-19T23:52:42.782Z,-1.01
2023-02-19T23:56:28.454Z,-1.03
2023-02-19T23:59:58.162Z,-1.04
